Argo, Illinois
Current Conditions -  °F | °C
As of 10:53 PM on Friday 19 Dec 2014 (Local Time) from KMDW Reporting Station
Overcast Overcast  
Wind Chill: -2°   Ceiling: 2800
Heat Index:   Visibility: 9mi
Dew Point: -4°   Wind: 5mph
Humidity: 72%   Direction: 180°S
Pressure: 30.26"   Gusts: NA
Location:  41.7806°N, 87.8151°W
Report Text: KMDW 200453Z 18004KT 9SM OVC028 01/M04 A3026 RMK AO2 SLP260 T00061039
Loading
Personal Weather Stations






























Interactive Weather Map New forecast layout! Learn more

10-Day Weather Forecast

Advertisements
Track Severe Weather on mobile